Time;durP1;ratioP1;P1;durP2;ratioP2;P2;SDS_P1;SDS_P2;PMS_P1;PMS_P2;Temp;Humidity;BMP_temperature;BMP_pressure;BME280_temperature;BME280_humidity;BME280_pressure;Samples;Min_cycle;Max_cycle;Signal;HPM_P1;HPM_P2
2021/08/21 00:01:54;;;;;;;8.47;7.13;;;15.40;99.90;;;;;;4938963;28;20570;-78
2021/08/21 00:04:22;;;;;;;8.93;7.27;;;15.40;99.90;;;;;;4948343;29;20779;-79
2021/08/21 00:06:50;;;;;;;9.23;7.33;;;15.40;99.90;;;;;;4934801;28;20200;-79
2021/08/21 00:09:17;;;;;;;9.17;8.13;;;15.30;99.90;;;;;;4947293;29;20214;-79
2021/08/21 00:11:43;;;;;;;11.57;8.60;;;15.30;99.90;;;;;;4946452;29;20195;-79
2021/08/21 00:14:10;;;;;;;9.80;8.07;;;15.20;99.90;;;;;;4931321;29;20228;-79
2021/08/21 00:16:37;;;;;;;10.57;8.73;;;15.20;99.90;;;;;;4938309;29;20204;-79
2021/08/21 00:19:05;;;;;;;10.53;7.97;;;15.20;99.90;;;;;;4943400;28;20204;-79
2021/08/21 00:21:33;;;;;;;12.20;8.47;;;15.20;99.90;;;;;;4936985;29;20208;-79
2021/08/21 00:24:00;;;;;;;8.67;7.40;;;15.10;99.90;;;;;;4938734;29;20199;-79
2021/08/21 00:26:27;;;;;;;9.40;7.73;;;15.10;99.90;;;;;;4942577;28;20207;-79
2021/08/21 00:28:53;;;;;;;9.00;7.60;;;15.10;99.90;;;;;;4944373;29;20247;-79
2021/08/21 00:31:21;;;;;;;10.67;8.57;;;15.00;99.90;;;;;;4941062;29;20732;-79
2021/08/21 00:33:48;;;;;;;9.07;7.00;;;15.10;99.90;;;;;;4936265;29;20661;-79
2021/08/21 00:36:14;;;;;;;9.67;7.80;;;15.10;99.90;;;;;;4941801;28;20189;-79
2021/08/21 00:38:43;;;;;;;9.63;7.57;;;15.00;99.90;;;;;;4941132;29;20306;-79
2021/08/21 00:41:11;;;;;;;10.13;9.17;;;15.10;99.90;;;;;;4941014;29;20196;-79
2021/08/21 00:43:38;;;;;;;9.50;7.97;;;15.00;99.90;;;;;;4937744;29;20639;-79
2021/08/21 00:46:05;;;;;;;9.70;7.57;;;15.00;99.90;;;;;;4935243;29;20699;-79
2021/08/21 00:48:32;;;;;;;9.90;7.80;;;15.00;99.90;;;;;;4945947;28;20198;-79
2021/08/21 00:51:01;;;;;;;8.33;7.23;;;15.00;99.90;;;;;;4939899;29;20293;-79
2021/08/21 00:53:30;;;;;;;12.27;7.90;;;15.00;99.90;;;;;;4935320;29;20233;-79
2021/08/21 00:55:59;;;;;;;9.33;7.73;;;14.90;99.90;;;;;;4950245;29;20322;-79
2021/08/21 00:58:27;;;;;;;8.13;7.27;;;14.90;99.90;;;;;;4935650;29;20219;-79
2021/08/21 01:00:55;;;;;;;8.47;7.50;;;14.90;99.90;;;;;;4951831;29;20195;-79
2021/08/21 01:03:21;;;;;;;8.73;7.17;;;14.90;99.90;;;;;;4937256;29;20688;-79
2021/08/21 01:05:49;;;;;;;10.60;7.97;;;14.90;99.90;;;;;;4947665;29;20607;-79
2021/08/21 01:08:16;;;;;;;10.43;7.97;;;14.80;99.90;;;;;;4938292;29;20215;-79
2021/08/21 01:10:55;;;;;;;12.67;11.57;;;14.80;99.90;;;;;;4943422;29;20213;-79
2021/08/21 01:13:24;;;;;;;12.40;11.23;;;14.80;99.90;;;;;;4941592;29;20581;-79
2021/08/21 01:15:52;;;;;;;12.90;11.80;;;14.80;99.90;;;;;;4936794;29;20512;-79
2021/08/21 01:18:22;;;;;;;13.43;12.27;;;14.80;99.90;;;;;;4938706;28;20208;-79
2021/08/21 01:20:50;;;;;;;12.70;11.40;;;14.70;99.90;;;;;;4943894;29;20191;-79
2021/08/21 01:23:20;;;;;;;12.63;11.53;;;14.70;99.90;;;;;;4936599;29;20215;-78
2021/08/21 01:26:10;;;;;;;12.20;11.13;;;14.70;99.90;;;;;;4934487;29;20236;-79
2021/08/21 01:28:58;;;;;;;12.13;11.03;;;14.70;99.90;;;;;;4947500;29;20225;-78
2021/08/21 01:31:48;;;;;;;12.53;11.43;;;14.70;99.90;;;;;;4943785;28;20216;-79
2021/08/21 01:34:15;;;;;;;12.73;11.63;;;14.70;99.90;;;;;;4936001;29;20240;-79
2021/08/21 01:36:44;;;;;;;13.57;12.33;;;14.70;99.90;;;;;;4938771;29;20195;-79
2021/08/21 01:39:29;;;;;;;13.10;12.03;;;14.60;99.90;;;;;;4940693;29;20213;-79
2021/08/21 01:42:03;;;;;;;12.40;11.37;;;14.60;99.90;;;;;;4933174;29;20294;-79
2021/08/21 01:44:33;;;;;;;12.30;11.30;;;14.60;99.90;;;;;;4937415;29;20226;-79
2021/08/21 01:47:00;;;;;;;12.70;11.60;;;14.60;99.90;;;;;;4932334;29;20204;-79
2021/08/21 01:49:27;;;;;;;12.20;11.20;;;14.50;99.90;;;;;;4941009;29;20202;-79
2021/08/21 01:52:02;;;;;;;12.07;10.97;;;14.60;99.90;;;;;;4928730;29;20206;-79
2021/08/21 01:54:29;;;;;;;12.33;11.33;;;14.50;99.90;;;;;;4941545;28;20258;-79
2021/08/21 01:56:58;;;;;;;12.27;11.20;;;14.50;99.90;;;;;;4949886;28;20300;-79
2021/08/21 01:59:45;;;;;;;12.40;11.30;;;14.50;99.90;;;;;;4949427;29;20205;-79
2021/08/21 02:02:35;;;;;;;12.73;11.63;;;14.40;99.90;;;;;;4947604;29;20229;-79
2021/08/21 02:05:21;;;;;;;12.30;11.30;;;14.40;99.90;;;;;;4943609;29;20233;-79
2021/08/21 02:07:48;;;;;;;13.00;11.87;;;14.40;99.90;;;;;;4950568;29;20208;-79
2021/08/21 02:10:16;;;;;;;12.17;11.27;;;14.40;99.90;;;;;;4942798;28;20221;-79
2021/08/21 02:12:43;;;;;;;11.83;10.83;;;14.40;99.90;;;;;;4944736;29;20225;-79
2021/08/21 02:15:15;;;;;;;12.70;11.60;;;14.40;99.90;;;;;;4943448;29;20225;-79
2021/08/21 02:17:48;;;;;;;12.97;11.90;;;14.40;99.90;;;;;;4944654;29;20278;-79
2021/08/21 02:20:33;;;;;;;12.23;11.23;;;14.40;99.90;;;;;;4941589;29;20250;-79
2021/08/21 02:23:02;;;;;;;11.67;10.77;;;14.30;99.90;;;;;;4945693;28;20207;-79
2021/08/21 02:25:31;;;;;;;11.83;10.93;;;14.30;99.90;;;;;;4944562;29;20249;-79
2021/08/21 02:28:05;;;;;;;12.53;11.43;;;14.30;99.90;;;;;;4937722;29;20231;-79
2021/08/21 02:30:35;;;;;;;12.77;11.73;;;14.30;99.90;;;;;;4944904;29;20545;-79
2021/08/21 02:33:03;;;;;;;12.63;11.53;;;14.30;99.90;;;;;;4947782;28;20253;-79
2021/08/21 02:35:29;;;;;;;12.30;11.23;;;14.30;99.90;;;;;;4947949;29;20259;-79
2021/08/21 02:37:56;;;;;;;12.90;11.80;;;14.30;99.90;;;;;;4939276;29;20233;-79
2021/08/21 02:40:23;;;;;;;12.47;11.47;;;14.20;99.90;;;;;;4941624;28;20250;-79
2021/08/21 02:42:50;;;;;;;13.00;11.73;;;14.20;99.90;;;;;;4948593;29;20212;-79
2021/08/21 02:45:18;;;;;;;12.83;11.83;;;14.20;99.90;;;;;;4943569;29;20325;-79
2021/08/21 02:47:46;;;;;;;12.40;11.40;;;14.20;99.90;;;;;;4923777;29;20208;-79
2021/08/21 02:50:13;;;;;;;12.50;11.43;;;14.20;99.90;;;;;;4925213;29;20578;-81
2021/08/21 02:52:40;;;;;;;12.30;11.30;;;14.20;99.90;;;;;;4933266;29;20204;-78
2021/08/21 02:55:08;;;;;;;12.57;11.57;;;14.20;99.90;;;;;;4936418;28;20223;-78
2021/08/21 02:57:42;;;;;;;12.30;11.30;;;14.20;99.90;;;;;;4926912;28;20638;-79
2021/08/21 03:00:09;;;;;;;12.00;11.00;;;14.10;99.90;;;;;;4918310;29;20207;-79
2021/08/21 03:02:46;;;;;;;11.97;11.07;;;14.10;99.90;;;;;;4934628;29;20211;-79
2021/08/21 03:05:14;;;;;;;12.57;11.47;;;14.10;99.90;;;;;;4932524;28;20222;-79
2021/08/21 03:07:42;;;;;;;12.30;11.30;;;14.20;99.90;;;;;;4912755;29;20239;-79
2021/08/21 03:10:11;;;;;;;13.00;11.60;;;14.20;99.90;;;;;;4939378;29;20210;-78
2021/08/21 03:12:51;;;;;;;12.67;11.67;;;14.10;99.90;;;;;;4923039;29;20740;-78
2021/08/21 03:15:19;;;;;;;12.80;11.73;;;14.10;99.90;;;;;;4934262;29;20245;-79
2021/08/21 03:17:48;;;;;;;13.00;11.80;;;14.10;99.90;;;;;;4940537;29;20753;-79
2021/08/21 03:20:16;;;;;;;13.03;12.00;;;14.00;99.90;;;;;;4947743;28;20212;-79
2021/08/21 03:22:49;;;;;;;13.17;12.17;;;14.00;99.90;;;;;;4934900;28;20214;-79
2021/08/21 03:25:24;;;;;;;12.07;11.17;;;14.00;99.90;;;;;;4935304;29;20222;-78
2021/08/21 03:27:53;;;;;;;12.27;11.27;;;14.00;99.90;;;;;;4928807;29;20575;-79
2021/08/21 03:30:20;;;;;;;12.17;11.27;;;13.90;99.90;;;;;;4931960;29;20269;-78
2021/08/21 03:32:54;;;;;;;12.20;11.27;;;14.00;99.90;;;;;;4929541;29;20643;-79
2021/08/21 03:35:21;;;;;;;12.33;11.33;;;14.00;99.90;;;;;;4923845;29;20230;-79
2021/08/21 03:37:48;;;;;;;11.77;10.87;;;14.00;99.90;;;;;;4922283;29;20255;-78
2021/08/21 03:40:15;;;;;;;11.60;10.73;;;14.00;99.90;;;;;;4942062;28;20217;-79
2021/08/21 03:42:50;;;;;;;12.60;11.60;;;13.90;99.90;;;;;;4920444;29;20207;-79
2021/08/21 03:45:17;;;;;;;13.30;12.30;;;13.90;99.90;;;;;;4923251;29;20699;-79
2021/08/21 03:47:46;;;;;;;12.47;11.47;;;13.90;99.90;;;;;;4921587;29;20201;-79
2021/08/21 03:50:15;;;;;;;12.00;11.10;;;13.90;99.90;;;;;;4923190;29;20199;-79
2021/08/21 03:52:42;;;;;;;11.67;10.77;;;13.90;99.90;;;;;;4925980;29;20207;-79
2021/08/21 03:55:10;;;;;;;12.20;11.27;;;13.90;99.90;;;;;;4922137;29;20618;-79
2021/08/21 03:57:40;;;;;;;12.30;11.40;;;13.90;99.90;;;;;;4918073;29;20218;-79
2021/08/21 04:00:08;;;;;;;12.50;11.60;;;13.90;99.90;;;;;;4917706;29;20583;-79
2021/08/21 04:02:43;;;;;;;13.10;12.10;;;13.90;99.90;;;;;;4934673;29;20205;-78
2021/08/21 04:05:17;;;;;;;11.57;10.67;;;13.80;99.90;;;;;;4938923;29;20629;-78
2021/08/21 04:07:44;;;;;;;12.50;11.50;;;13.80;99.90;;;;;;4938127;28;20213;-78
2021/08/21 04:10:11;;;;;;;13.23;12.13;;;13.80;99.90;;;;;;4935874;29;20209;-78
2021/08/21 04:12:38;;;;;;;13.37;12.27;;;13.80;99.90;;;;;;4925539;28;20265;-78
2021/08/21 04:15:14;;;;;;;12.43;11.43;;;13.70;99.90;;;;;;4925326;29;20226;-78
2021/08/21 04:17:41;;;;;;;12.80;11.80;;;13.70;99.90;;;;;;4922513;29;20325;-79
2021/08/21 04:20:10;;;;;;;13.50;12.40;;;13.70;99.90;;;;;;4934669;28;20205;-78
2021/08/21 04:22:41;;;;;;;13.63;12.47;;;13.70;99.90;;;;;;4948215;29;20214;-82
2021/08/21 04:25:09;;;;;;;12.63;11.57;;;13.70;99.90;;;;;;4950786;28;20224;-82
2021/08/21 04:27:36;;;;;;;12.93;11.93;;;13.70;99.90;;;;;;4953017;29;20226;-81
2021/08/21 04:30:04;;;;;;;12.63;11.60;;;13.70;99.90;;;;;;4947004;28;20268;-79
2021/08/21 04:32:32;;;;;;;13.00;12.00;;;13.70;99.90;;;;;;4943497;29;20205;-82
2021/08/21 04:35:00;;;;;;;13.57;12.47;;;13.80;99.90;;;;;;4934867;29;20229;-80
2021/08/21 04:37:29;;;;;;;13.27;12.27;;;13.90;99.90;;;;;;4931848;29;20233;-81
2021/08/21 04:39:57;;;;;;;12.93;11.93;;;13.90;99.90;;;;;;4938500;28;20221;-82
2021/08/21 04:42:24;;;;;;;13.27;12.20;;;13.90;99.90;;;;;;4943627;29;20211;-79
2021/08/21 04:44:58;;;;;;;13.17;12.17;;;14.00;99.90;;;;;;4943651;29;20221;-77
2021/08/21 04:47:27;;;;;;;13.43;12.33;;;14.10;99.90;;;;;;4943941;29;20213;-78
2021/08/21 04:49:54;;;;;;;13.10;12.10;;;14.10;99.90;;;;;;4933147;29;20211;-78
2021/08/21 04:52:21;;;;;;;14.60;13.30;;;14.10;99.90;;;;;;4937066;28;20234;-78
2021/08/21 04:54:48;;;;;;;14.03;12.93;;;14.20;99.90;;;;;;4949341;23;20233;-76
2021/08/21 04:57:17;;;;;;;15.00;13.80;;;14.30;99.90;;;;;;4945738;28;20320;-76
2021/08/21 04:59:48;;;;;;;12.70;11.50;;;14.40;99.90;;;;;;4944886;28;20331;-76
2021/08/21 05:02:16;;;;;;;13.40;12.40;;;14.50;99.90;;;;;;4951791;28;20198;-76
2021/08/21 05:04:44;;;;;;;14.20;13.10;;;14.60;99.90;;;;;;4943635;28;20233;-76
2021/08/21 05:07:10;;;;;;;14.20;13.10;;;14.70;99.90;;;;;;4934828;29;20195;-76
2021/08/21 05:09:43;;;;;;;12.93;11.90;;;14.80;99.90;;;;;;4929756;29;20290;-76
2021/08/21 05:12:16;;;;;;;13.30;12.20;;;14.90;99.90;;;;;;4925163;29;20204;-76
2021/08/21 05:15:18;;;;;;;11.87;10.87;;;15.00;99.90;;;;;;4924450;29;20747;-76
2021/08/21 05:18:03;;;;;;;13.10;12.10;;;15.10;99.90;;;;;;4923714;29;20202;-76
2021/08/21 05:20:43;;;;;;;12.00;11.00;;;15.30;99.90;;;;;;4927988;29;20251;-76
2021/08/21 05:23:15;;;;;;;12.80;11.80;;;15.40;99.90;;;;;;4924077;29;20299;-76
2021/08/21 05:25:45;;;;;;;12.13;11.13;;;15.60;99.90;;;;;;4938279;29;20220;-75
2021/08/21 05:28:14;;;;;;;8.30;7.50;;;15.70;99.90;;;;;;4927227;29;20222;-76
2021/08/21 05:30:42;;;;;;;13.43;12.23;;;15.80;99.90;;;;;;4924895;29;20211;-77
2021/08/21 05:33:11;;;;;;;7.23;6.40;;;15.90;99.90;;;;;;4929332;29;20646;-76
2021/08/21 05:35:39;;;;;;;7.60;6.73;;;16.00;99.90;;;;;;4925928;29;20227;-76
2021/08/21 05:38:06;;;;;;;10.17;9.37;;;16.00;99.90;;;;;;4928141;29;20210;-76
2021/08/21 05:40:34;;;;;;;13.30;12.30;;;16.10;99.90;;;;;;4935704;29;20266;-76
2021/08/21 05:43:01;;;;;;;13.37;12.33;;;16.20;99.90;;;;;;4932501;29;20212;-76
2021/08/21 05:45:30;;;;;;;11.97;11.03;;;16.30;99.90;;;;;;4935066;29;20223;-77
2021/08/21 05:47:57;;;;;;;12.93;12.03;;;16.40;99.90;;;;;;4921928;29;20281;-76
2021/08/21 05:50:24;;;;;;;14.10;13.00;;;16.40;99.90;;;;;;4927308;29;20271;-76
2021/08/21 05:52:52;;;;;;;13.70;12.70;;;16.40;99.90;;;;;;4922718;29;20258;-76
2021/08/21 05:55:19;;;;;;;13.20;12.17;;;16.50;99.90;;;;;;4930561;29;20258;-76
2021/08/21 05:57:54;;;;;;;12.03;11.13;;;16.40;99.90;;;;;;4926388;29;20215;-76
2021/08/21 06:00:21;;;;;;;13.30;12.30;;;16.40;99.90;;;;;;4926045;29;20280;-77
2021/08/21 06:02:49;;;;;;;13.70;12.60;;;16.40;99.90;;;;;;4931639;29;20205;-76
2021/08/21 06:05:16;;;;;;;9.97;8.97;;;16.40;99.90;;;;;;4924358;29;20265;-76
2021/08/21 06:07:44;;;;;;;9.20;8.40;;;16.40;99.90;;;;;;4931993;29;20667;-76
2021/08/21 06:10:19;;;;;;;11.63;10.73;;;16.50;99.90;;;;;;4932975;29;20197;-76
2021/08/21 06:12:47;;;;;;;13.73;12.63;;;16.50;99.90;;;;;;4928831;29;20291;-76
2021/08/21 06:15:14;;;;;;;13.80;12.70;;;16.50;99.90;;;;;;4926705;29;20714;-76
2021/08/21 06:17:41;;;;;;;14.30;13.17;;;16.60;99.90;;;;;;4927372;29;20585;-76
2021/08/21 06:20:10;;;;;;;8.70;7.90;;;16.60;99.90;;;;;;4924016;29;20231;-76
2021/08/21 06:22:37;;;;;;;9.27;8.47;;;16.70;99.90;;;;;;4934031;29;20261;-77
2021/08/21 06:25:06;;;;;;;12.30;11.40;;;16.70;99.90;;;;;;4934100;29;20231;-76
2021/08/21 06:27:33;;;;;;;12.60;11.60;;;16.80;99.90;;;;;;4926663;29;20384;-76
2021/08/21 06:30:00;;;;;;;12.00;11.10;;;16.90;99.90;;;;;;4920203;29;20200;-76
2021/08/21 06:32:27;;;;;;;14.00;12.90;;;17.00;99.90;;;;;;4927218;29;20254;-76
2021/08/21 06:34:54;;;;;;;13.83;12.83;;;17.10;99.90;;;;;;4926737;29;20224;-76
2021/08/21 06:37:22;;;;;;;14.37;13.07;;;17.20;99.90;;;;;;4931828;29;20204;-77
2021/08/21 06:39:48;;;;;;;13.23;12.07;;;17.30;99.90;;;;;;4923110;29;20226;-76
2021/08/21 06:42:15;;;;;;;13.40;12.40;;;17.50;99.90;;;;;;4940447;28;20251;-76
2021/08/21 06:44:55;;;;;;;13.23;12.23;;;17.60;99.90;;;;;;4921765;29;20662;-76
2021/08/21 06:47:21;;;;;;;12.63;11.73;;;17.60;99.90;;;;;;4921596;29;20206;-77
2021/08/21 06:49:48;;;;;;;9.80;8.90;;;17.80;99.90;;;;;;4926980;29;20207;-76
2021/08/21 06:52:15;;;;;;;6.57;5.23;;;17.90;99.90;;;;;;4925598;29;20671;-76
2021/08/21 06:54:43;;;;;;;9.33;8.53;;;18.20;99.90;;;;;;4929397;28;20229;-76
2021/08/21 06:57:10;;;;;;;10.93;9.83;;;18.30;99.90;;;;;;4925443;29;20207;-77
2021/08/21 06:59:37;;;;;;;10.93;10.00;;;18.40;99.90;;;;;;4923531;29;20218;-77
2021/08/21 07:02:04;;;;;;;10.43;9.53;;;18.40;99.90;;;;;;4923593;29;20264;-76
2021/08/21 07:04:31;;;;;;;10.27;9.40;;;18.50;99.90;;;;;;4933527;29;20607;-77
2021/08/21 07:06:58;;;;;;;10.43;9.63;;;18.60;99.90;;;;;;4928391;29;20210;-77
2021/08/21 07:09:25;;;;;;;12.17;11.17;;;18.70;99.90;;;;;;4926749;29;20214;-76
2021/08/21 07:11:53;;;;;;;10.13;9.23;;;18.70;99.90;;;;;;4923069;29;20273;-77
2021/08/21 07:14:20;;;;;;;9.33;8.43;;;18.70;99.90;;;;;;4936572;29;20628;-77
2021/08/21 07:16:47;;;;;;;11.83;10.73;;;18.80;99.90;;;;;;4933549;28;20194;-76
2021/08/21 07:19:13;;;;;;;11.77;10.80;;;18.70;99.90;;;;;;4924222;29;20259;-76
2021/08/21 07:21:40;;;;;;;12.47;11.47;;;18.80;99.90;;;;;;4920376;29;20204;-76
2021/08/21 07:24:07;;;;;;;12.07;11.17;;;18.90;99.90;;;;;;4926898;29;20204;-77
2021/08/21 07:26:34;;;;;;;9.50;8.60;;;19.10;99.90;;;;;;4925468;29;20231;-77
2021/08/21 07:29:02;;;;;;;11.97;10.90;;;19.40;99.90;;;;;;4930537;29;20337;-76
2021/08/21 07:31:29;;;;;;;7.00;6.30;;;19.80;99.90;;;;;;4923087;29;20209;-77
2021/08/21 07:33:56;;;;;;;9.83;9.03;;;20.40;99.90;;;;;;4937086;29;20679;-77
2021/08/21 07:36:23;;;;;;;11.23;10.43;;;20.70;99.90;;;;;;4935638;29;20229;-76
2021/08/21 07:38:52;;;;;;;10.63;9.73;;;21.10;99.90;;;;;;4922525;29;20205;-76
2021/08/21 07:41:18;;;;;;;11.83;10.90;;;21.50;99.90;;;;;;4928205;29;20214;-77
2021/08/21 07:43:45;;;;;;;8.20;7.50;;;21.50;99.90;;;;;;4931701;28;20679;-77
2021/08/21 07:46:13;;;;;;;7.67;6.97;;;21.90;99.90;;;;;;4929745;29;20219;-77
2021/08/21 07:48:40;;;;;;;10.27;9.47;;;22.40;99.90;;;;;;4924976;29;20199;-77
2021/08/21 07:51:07;;;;;;;7.50;6.47;;;22.90;99.90;;;;;;4923617;29;20263;-77
2021/08/21 07:53:34;;;;;;;10.63;9.70;;;23.10;99.90;;;;;;4928734;29;20669;-77
2021/08/21 07:56:06;;;;;;;9.80;9.00;;;23.30;99.90;;;;;;4927781;29;20723;-77
2021/08/21 07:58:33;;;;;;;11.73;10.93;;;23.60;99.90;;;;;;4931220;29;20207;-77
2021/08/21 08:01:00;;;;;;;10.40;9.50;;;23.70;99.90;;;;;;4928254;29;20223;-77
2021/08/21 08:03:28;;;;;;;9.97;9.17;;;23.90;99.90;;;;;;4929727;29;20674;-77
2021/08/21 08:05:55;;;;;;;9.50;8.70;;;24.10;99.90;;;;;;4926718;29;20250;-76
2021/08/21 08:08:23;;;;;;;9.93;9.03;;;24.50;99.90;;;;;;4931399;29;20286;-76
2021/08/21 08:10:50;;;;;;;5.27;4.37;;;24.60;99.90;;;;;;4927110;29;20264;-77
2021/08/21 08:13:17;;;;;;;7.43;6.20;;;24.80;99.90;;;;;;4928833;29;20263;-78
2021/08/21 08:15:44;;;;;;;8.53;7.83;;;24.80;99.90;;;;;;4940704;29;20223;-79
2021/08/21 08:18:11;;;;;;;11.57;10.70;;;24.90;99.90;;;;;;4941900;29;20849;-80
2021/08/21 08:20:39;;;;;;;9.37;8.57;;;25.10;99.90;;;;;;4938624;29;20223;-81
2021/08/21 08:23:06;;;;;;;8.93;8.03;;;25.10;99.90;;;;;;4941404;29;20289;-82
2021/08/21 08:25:33;;;;;;;10.10;9.30;;;25.30;99.90;;;;;;4935607;29;20235;-81
2021/08/21 08:28:00;;;;;;;11.40;10.50;;;25.40;99.90;;;;;;4930707;29;20265;-78
2021/08/21 08:30:27;;;;;;;10.70;9.70;;;25.60;99.90;;;;;;4926449;29;20204;-77
2021/08/21 08:32:54;;;;;;;10.30;9.50;;;25.70;99.90;;;;;;4928313;29;20231;-76
2021/08/21 08:35:21;;;;;;;10.40;9.60;;;25.70;99.90;;;;;;4932756;29;20277;-77
2021/08/21 08:37:49;;;;;;;7.60;7.00;;;25.90;99.90;;;;;;4930135;28;20581;-76
2021/08/21 08:40:15;;;;;;;9.30;8.47;;;26.00;99.90;;;;;;4929060;29;20231;-77
2021/08/21 08:42:44;;;;;;;9.53;8.73;;;26.30;99.90;;;;;;4925096;29;20223;-80
2021/08/21 08:45:12;;;;;;;8.60;8.00;;;26.40;99.90;;;;;;4941538;29;20278;-79
2021/08/21 08:47:39;;;;;;;9.83;9.13;;;26.50;99.90;;;;;;4956625;29;20207;-79
2021/08/21 08:50:09;;;;;;;9.40;8.60;;;26.30;99.90;;;;;;4943120;29;20211;-80
2021/08/21 08:52:36;;;;;;;9.80;9.10;;;26.30;99.90;;;;;;4946527;29;20232;-79
2021/08/21 08:55:08;;;;;;;7.93;7.33;;;26.40;99.90;;;;;;4933262;29;20236;-81
2021/08/21 08:57:37;;;;;;;8.80;8.10;;;26.60;99.90;;;;;;4932395;29;20211;-83
2021/08/21 09:00:07;;;;;;;9.87;9.07;;;26.60;99.90;;;;;;4929407;29;20597;-80
2021/08/21 09:02:35;;;;;;;8.70;7.90;;;26.80;99.90;;;;;;4940711;29;20262;-80
2021/08/21 09:05:05;;;;;;;8.47;7.70;;;26.80;99.90;;;;;;4941667;29;20633;-80
2021/08/21 09:07:40;;;;;;;9.30;8.40;;;27.10;99.90;;;;;;4934013;29;20231;-81
2021/08/21 09:10:13;;;;;;;9.60;8.90;;;27.10;99.90;;;;;;4938494;29;20205;-81
2021/08/21 09:12:40;;;;;;;8.20;7.50;;;27.30;99.90;;;;;;4941101;29;20204;-80
2021/08/21 09:15:19;;;;;;;9.00;8.20;;;27.50;99.90;;;;;;4941742;29;20219;-81
2021/08/21 09:18:01;;;;;;;9.33;8.63;;;27.80;99.90;;;;;;4956816;29;20207;-80
2021/08/21 09:20:29;;;;;;;9.50;8.70;;;27.90;99.90;;;;;;4956039;29;20231;-83
2021/08/21 09:23:16;;;;;;;10.40;9.50;;;27.80;99.90;;;;;;4934127;28;20232;-80
2021/08/21 09:25:45;;;;;;;9.63;8.93;;;27.50;99.90;;;;;;4938263;29;20267;-79
2021/08/21 09:28:16;;;;;;;9.37;8.47;;;27.30;99.90;;;;;;4948883;28;20206;-83
2021/08/21 09:30:43;;;;;;;8.43;7.80;;;26.90;99.90;;;;;;4950499;28;20682;-81
2021/08/21 09:33:10;;;;;;;9.63;8.30;;;27.20;99.90;;;;;;4937139;29;20313;-81
2021/08/21 09:35:37;;;;;;;9.60;8.63;;;27.30;99.90;;;;;;4937359;29;20223;-82
2021/08/21 09:38:04;;;;;;;8.80;8.10;;;27.50;99.90;;;;;;4934940;29;20207;-83
2021/08/21 09:40:33;;;;;;;9.17;7.70;;;27.40;99.90;;;;;;4950113;28;20211;-81
2021/08/21 09:43:03;;;;;;;8.80;8.10;;;27.30;99.90;;;;;;4930689;29;20203;-79
2021/08/21 09:45:35;;;;;;;10.50;9.70;;;27.30;99.90;;;;;;4945660;28;20274;-80
2021/08/21 09:48:03;;;;;;;8.20;7.60;;;27.50;99.90;;;;;;4929577;29;20204;-82
2021/08/21 09:50:34;;;;;;;8.07;7.40;;;27.80;99.90;;;;;;4932936;29;20203;-81
2021/08/21 09:55:36;;;;;;;10.50;9.60;;;27.60;99.90;;;;;;5087784;23;20235;-81
2021/08/21 09:58:07;;;;;;;10.30;9.40;;;27.70;99.90;;;;;;4938314;29;20211;-81
2021/08/21 10:00:36;;;;;;;10.03;9.13;;;27.70;99.90;;;;;;4938820;28;20235;-81
2021/08/21 10:03:04;;;;;;;10.53;9.63;;;27.50;99.90;;;;;;4934240;29;20630;-80
2021/08/21 10:05:32;;;;;;;10.90;9.80;;;27.60;99.90;;;;;;4921081;29;20216;-84
2021/08/21 10:08:02;;;;;;;10.17;9.37;;;27.70;99.90;;;;;;4941118;23;20291;-80
2021/08/21 10:10:34;;;;;;;10.47;9.47;;;27.70;99.90;;;;;;4916532;29;20196;-81
2021/08/21 10:13:08;;;;;;;11.03;10.00;;;27.80;99.90;;;;;;4915081;29;20214;-79
2021/08/21 10:15:41;;;;;;;10.77;9.93;;;27.60;99.90;;;;;;4914250;29;20215;-79
2021/08/21 10:18:09;;;;;;;10.50;9.70;;;27.60;99.90;;;;;;4919324;29;20220;-79
2021/08/21 10:20:38;;;;;;;10.40;9.60;;;27.40;99.90;;;;;;4923895;29;20212;-79
2021/08/21 10:23:10;;;;;;;10.57;9.77;;;27.50;99.90;;;;;;4921070;29;20620;-80
2021/08/21 10:25:40;;;;;;;10.43;9.63;;;27.60;99.90;;;;;;4923643;29;20402;-80
2021/08/21 10:28:08;;;;;;;10.30;9.50;;;27.60;99.90;;;;;;4922503;29;20755;-80
2021/08/21 10:30:47;;;;;;;10.07;9.27;;;27.50;99.90;;;;;;4921571;29;20680;-80
2021/08/21 10:33:15;;;;;;;10.13;9.43;;;27.60;99.90;;;;;;4922135;29;20206;-81
2021/08/21 10:35:44;;;;;;;9.37;8.67;;;27.60;99.90;;;;;;4927195;29;20206;-81
2021/08/21 10:38:39;;;;;;;9.60;8.80;;;27.50;99.90;;;;;;4924308;29;20216;-81
2021/08/21 10:41:36;;;;;;;9.37;8.67;;;27.30;99.90;;;;;;4925038;29;20219;-81
2021/08/21 10:44:04;;;;;;;7.27;6.57;;;27.20;99.90;;;;;;4910036;29;20295;-81
2021/08/21 10:46:56;;;;;;;6.70;6.00;;;27.10;99.90;;;;;;4927351;29;20226;-80
2021/08/21 10:49:43;;;;;;;5.30;4.73;;;27.30;99.90;;;;;;4915170;29;20207;-82
2021/08/21 10:52:46;;;;;;;5.83;4.93;;;27.10;99.90;;;;;;4924815;29;20302;-80
2021/08/21 10:55:17;;;;;;;7.93;7.23;;;27.30;99.90;;;;;;4919603;29;20211;-80
2021/08/21 10:58:06;;;;;;;5.40;4.90;;;27.20;99.90;;;;;;4926312;29;20306;-82
2021/08/21 11:01:03;;;;;;;8.13;4.97;;;27.30;99.90;;;;;;4917139;29;20643;-80
2021/08/21 11:03:48;;;;;;;6.83;4.93;;;27.40;99.90;;;;;;4924557;29;20244;-80
2021/08/21 11:06:17;;;;;;;6.97;6.27;;;27.30;99.90;;;;;;4917844;29;20223;-81
2021/08/21 11:09:11;;;;;;;4.83;4.40;;;27.40;99.90;;;;;;4916819;29;20258;-82
2021/08/21 11:11:46;;;;;;;5.80;5.20;;;27.60;99.90;;;;;;4920396;29;20608;-81
2021/08/21 11:14:35;;;;;;;5.73;5.03;;;27.40;99.90;;;;;;4909064;29;20228;-80
2021/08/21 11:17:05;;;;;;;6.50;5.40;;;27.40;99.90;;;;;;4915008;29;20259;-80
2021/08/21 11:19:41;;;;;;;6.23;5.20;;;27.30;99.90;;;;;;4914717;29;20282;-80
2021/08/21 11:22:14;;;;;;;5.27;4.77;;;27.40;99.90;;;;;;4915914;29;20761;-80
2021/08/21 11:24:59;;;;;;;5.50;5.00;;;27.60;99.90;;;;;;4913451;29;20196;-80
2021/08/21 11:27:41;;;;;;;10.37;9.60;;;27.70;99.90;;;;;;4919789;29;20223;-80
2021/08/21 11:30:21;;;;;;;9.07;8.37;;;27.70;99.90;;;;;;4915440;29;20291;-80
2021/08/21 11:32:50;;;;;;;9.00;8.30;;;27.80;99.90;;;;;;4924656;29;20262;-81
2021/08/21 11:35:21;;;;;;;10.00;9.13;;;27.90;99.90;;;;;;4924057;29;20202;-80
2021/08/21 11:40:40;;;;;;;5.87;4.50;;;27.70;99.90;;;;;;4906605;29;20224;-83
2021/08/21 11:43:08;;;;;;;9.67;8.87;;;27.70;99.90;;;;;;4916383;29;20291;-81
2021/08/21 11:45:35;;;;;;;7.47;6.87;;;27.60;99.90;;;;;;4916548;29;20208;-80
2021/08/21 11:48:03;;;;;;;5.50;5.00;;;27.50;99.90;;;;;;4915274;29;20584;-80
2021/08/21 11:50:33;;;;;;;7.23;5.57;;;27.50;99.90;;;;;;4920955;29;20194;-78
2021/08/21 11:53:03;;;;;;;7.47;6.83;;;27.60;99.90;;;;;;4919526;29;20215;-79
2021/08/21 11:55:32;;;;;;;10.57;9.77;;;27.60;99.90;;;;;;4925550;29;20258;-79
2021/08/21 11:57:59;;;;;;;10.00;9.20;;;27.50;99.90;;;;;;4909026;29;20234;-79
2021/08/21 12:00:28;;;;;;;10.50;9.70;;;27.60;99.90;;;;;;4921445;29;20219;-80
2021/08/21 12:02:58;;;;;;;10.50;9.70;;;27.60;99.90;;;;;;4919785;29;20204;-80
2021/08/21 12:05:32;;;;;;;10.10;9.30;;;27.60;99.90;;;;;;4909286;29;20196;-79
2021/08/21 12:07:59;;;;;;;10.50;9.70;;;27.70;99.90;;;;;;4908427;29;20276;-78
2021/08/21 12:10:30;;;;;;;10.30;9.60;;;27.80;99.90;;;;;;4918581;29;20227;-78
2021/08/21 12:12:59;;;;;;;10.00;9.20;;;27.90;99.90;;;;;;4916492;29;20219;-78
2021/08/21 12:15:29;;;;;;;9.87;9.17;;;27.90;99.90;;;;;;4910818;29;20200;-79
2021/08/21 12:17:57;;;;;;;8.97;8.27;;;27.90;99.90;;;;;;4917861;29;20220;-78
2021/08/21 12:20:24;;;;;;;8.50;7.90;;;27.80;99.90;;;;;;4920526;29;20200;-79
2021/08/21 12:22:53;;;;;;;9.67;8.87;;;27.80;99.90;;;;;;4916717;29;20614;-79
2021/08/21 12:25:20;;;;;;;4.47;4.03;;;27.70;99.90;;;;;;4915150;29;20695;-78
2021/08/21 12:27:47;;;;;;;5.70;4.47;;;27.80;99.90;;;;;;4922437;29;20735;-79
2021/08/21 12:30:17;;;;;;;4.53;4.13;;;27.80;99.90;;;;;;4921848;29;20207;-78
2021/08/21 12:32:44;;;;;;;4.97;4.20;;;27.80;99.90;;;;;;4913900;29;20204;-78
2021/08/21 12:35:17;;;;;;;5.17;4.63;;;27.80;99.90;;;;;;4914841;29;20207;-78
2021/08/21 12:37:45;;;;;;;5.00;4.20;;;27.80;99.90;;;;;;4905099;29;20228;-77
2021/08/21 12:40:16;;;;;;;4.33;3.93;;;27.90;99.90;;;;;;4911636;29;20301;-78
2021/08/21 12:42:43;;;;;;;8.93;8.23;;;27.90;99.90;;;;;;4916969;29;20239;-79
2021/08/21 12:45:22;;;;;;;8.60;7.90;;;27.90;99.90;;;;;;4924762;29;20239;-78
2021/08/21 12:47:49;;;;;;;8.97;8.27;;;27.90;99.90;;;;;;4926824;29;20218;-78
2021/08/21 12:50:16;;;;;;;9.00;8.27;;;27.80;99.90;;;;;;4918125;29;20251;-78
2021/08/21 12:56:13;;;;;;;9.00;8.30;;;27.50;99.90;;;;;;4874264;29;20195;-79
2021/08/21 12:58:40;;;;;;;8.50;7.90;;;27.30;99.90;;;;;;4928297;29;20653;-78
2021/08/21 13:01:08;;;;;;;8.27;7.67;;;27.40;99.90;;;;;;4923010;29;20216;-79